Time;durP1;ratioP1;P1;durP2;ratioP2;P2;SDS_P1;SDS_P2;PMS_P1;PMS_P2;Temp;Humidity;BMP_temperature;BMP_pressure;BME280_temperature;BME280_humidity;BME280_pressure;Samples;Min_cycle;Max_cycle;Signal;HPM_P1;HPM_P2
2023/06/01 00:00:20;;;;;;;7.60;3.72;;;;;;;19.95;45.07;99326.41;4372404;32;33496;-84
2023/06/01 00:02:49;;;;;;;7.70;3.55;;;;;;;20.07;44.88;99332.25;4374327;32;33492;-83
2023/06/01 00:05:17;;;;;;;5.62;2.97;;;;;;;19.84;44.55;99331.91;4375459;32;35181;-83
2023/06/01 00:07:46;;;;;;;8.98;4.47;;;;;;;19.89;44.14;99325.66;4372732;32;33822;-83
2023/06/01 00:10:14;;;;;;;8.15;3.12;;;;;;;19.86;44.23;99328.34;4373566;32;33344;-83
2023/06/01 00:12:42;;;;;;;8.73;3.25;;;;;;;19.81;44.57;99327.59;4359690;32;33995;-82
2023/06/01 00:15:10;;;;;;;5.80;2.92;;;;;;;19.72;44.49;99325.16;4371784;32;34250;-84
2023/06/01 00:17:38;;;;;;;8.93;3.50;;;;;;;19.62;44.74;99319.25;4373422;32;33982;-83
2023/06/01 00:20:08;;;;;;;9.52;3.92;;;;;;;19.67;44.41;99311.25;4374091;32;33946;-83
2023/06/01 00:22:38;;;;;;;8.68;3.83;;;;;;;19.53;44.71;99313.28;4372734;32;34706;-83
2023/06/01 00:25:07;;;;;;;7.95;3.20;;;;;;;19.61;44.63;99311.34;4373359;32;34311;-84
2023/06/01 00:27:35;;;;;;;9.15;3.45;;;;;;;19.57;44.65;99320.19;4374087;32;34493;-83
2023/06/01 00:30:03;;;;;;;8.00;3.30;;;;;;;19.67;44.01;99311.25;4360542;32;33219;-84
2023/06/01 00:32:32;;;;;;;8.80;3.58;;;;;;;19.58;44.30;99312.25;4373038;32;33794;-82
2023/06/01 00:34:59;;;;;;;8.65;3.55;;;;;;;19.57;44.05;99307.06;4373086;32;35184;-84
2023/06/01 00:37:28;;;;;;;9.57;3.42;;;;;;;19.60;43.94;99307.00;4372991;32;34928;-83
2023/06/01 00:39:56;;;;;;;8.00;3.72;;;;;;;19.54;43.58;99309.75;4373920;32;34146;-84
2023/06/01 00:42:23;;;;;;;8.75;3.87;;;;;;;19.48;43.97;99307.25;4373545;32;33094;-85
2023/06/01 00:44:53;;;;;;;9.45;4.00;;;;;;;19.61;44.85;99312.22;4373577;32;33642;-84
2023/06/01 00:47:21;;;;;;;7.57;3.83;;;;;;;19.68;44.75;99319.09;4372759;32;34693;-83
2023/06/01 00:49:50;;;;;;;8.90;3.60;;;;;;;19.65;45.53;99310.41;4359903;32;33695;-83
2023/06/01 00:52:18;;;;;;;8.75;3.55;;;;;;;19.62;46.15;99307.84;4359183;32;34071;-82
2023/06/01 00:54:45;;;;;;;8.48;3.55;;;;;;;19.48;45.91;99313.38;4359666;32;34120;-82
2023/06/01 00:57:13;;;;;;;6.47;3.20;;;;;;;19.52;45.67;99314.19;4372158;32;33332;-83
2023/06/01 00:59:41;;;;;;;6.10;3.28;;;;;;;19.48;45.20;99302.88;4359952;32;33541;-83
2023/06/01 01:02:09;;;;;;;7.28;3.62;;;;;;;19.31;45.39;99305.81;4358433;32;34669;-83
2023/06/01 01:04:37;;;;;;;8.57;3.25;;;;;;;19.27;45.77;99305.94;4358806;32;35029;-83
2023/06/01 01:07:20;;;;;;;8.68;4.07;;;;;;;19.28;45.47;99303.28;4373474;32;34644;-82
2023/06/01 01:09:51;;;;;;;9.25;3.72;;;;;;;19.37;45.44;99300.44;4372745;32;33525;-82
2023/06/01 01:12:47;;;;;;;10.90;3.95;;;;;;;19.29;45.61;99305.00;4372799;32;34625;-82
2023/06/01 01:15:26;;;;;;;8.82;3.70;;;;;;;19.29;45.64;99293.63;4357549;32;33884;-83
2023/06/01 01:18:03;;;;;;;7.07;3.12;;;;;;;19.27;45.70;99301.53;4357961;32;34030;-83
2023/06/01 01:20:36;;;;;;;11.40;4.25;;;;;;;19.34;45.76;99300.50;4345770;32;32639;-83
2023/06/01 01:23:09;;;;;;;8.48;3.55;;;;;;;19.18;46.23;99301.72;4360918;32;33974;-84
2023/06/01 01:25:43;;;;;;;11.57;3.80;;;;;;;19.26;45.87;99294.56;4376112;32;34057;-83
2023/06/01 01:28:33;;;;;;;9.80;3.55;;;;;;;19.13;46.28;99300.94;4373512;32;34450;-83
2023/06/01 01:31:03;;;;;;;8.75;3.97;;;;;;;19.18;46.25;99294.72;4358005;32;32767;-83
2023/06/01 01:33:32;;;;;;;9.73;3.92;;;;;;;19.12;46.25;99299.22;4374408;32;34020;-83
2023/06/01 01:36:00;;;;;;;7.70;3.97;;;;;;;19.26;45.77;99294.56;4373616;32;34963;-82
2023/06/01 01:38:28;;;;;;;8.20;4.20;;;;;;;19.15;45.92;99289.50;4361012;32;34915;-84
2023/06/01 01:40:56;;;;;;;10.18;3.90;;;;;;;19.26;45.55;99294.56;4374620;32;33621;-84
2023/06/01 01:43:24;;;;;;;7.93;3.95;;;;;;;19.15;46.14;99292.13;4373266;32;34029;-82
2023/06/01 01:46:03;;;;;;;9.40;3.78;;;;;;;19.11;46.80;99292.22;4360622;32;34325;-84
2023/06/01 01:49:04;;;;;;;13.48;4.70;;;;;;;19.07;46.90;99290.56;4361655;32;33468;-84
2023/06/01 01:51:36;;;;;;;9.98;3.70;;;;;;;19.13;46.79;99298.31;4364837;32;34304;-83
2023/06/01 01:54:07;;;;;;;9.55;4.12;;;;;;;19.16;45.93;99295.62;4374423;32;33913;-83
2023/06/01 01:56:37;;;;;;;7.37;3.53;;;;;;;19.20;46.04;99294.66;4361390;32;33400;-83
2023/06/01 01:59:04;;;;;;;8.40;3.25;;;;;;;19.07;46.59;99293.19;4360928;32;34070;-83
2023/06/01 02:01:32;;;;;;;9.23;3.72;;;;;;;19.05;47.09;99289.72;4374255;32;32938;-83
2023/06/01 02:04:07;;;;;;;8.00;3.37;;;;;;;19.14;46.51;99294.81;4371517;32;33694;-83
2023/06/01 02:06:36;;;;;;;8.55;3.70;;;;;;;19.26;46.03;99291.06;4375327;32;34168;-83
2023/06/01 02:09:07;;;;;;;10.48;4.37;;;;;;;19.06;46.33;99291.47;4374297;32;33663;-84
2023/06/01 02:11:35;;;;;;;8.88;3.50;;;;;;;18.93;46.84;99288.19;4375940;32;33541;-83
2023/06/01 02:14:03;;;;;;;10.05;3.87;;;;;;;18.87;47.28;99281.31;4360300;32;33818;-82
2023/06/01 02:16:31;;;;;;;9.88;4.03;;;;;;;18.88;46.98;99277.78;4373794;32;33908;-83
2023/06/01 02:19:02;;;;;;;9.18;3.87;;;;;;;18.95;46.76;99287.28;4374921;32;34584;-83
2023/06/01 02:21:31;;;;;;;10.23;3.72;;;;;;;18.86;46.51;99284.81;4375847;32;33343;-83
2023/06/01 02:24:04;;;;;;;9.95;4.22;;;;;;;18.90;46.30;99281.25;4374123;32;34075;-83
2023/06/01 02:26:32;;;;;;;7.90;3.75;;;;;;;18.83;46.36;99274.38;4373735;32;34584;-82
2023/06/01 02:29:02;;;;;;;9.45;3.85;;;;;;;18.88;46.27;99274.28;4372087;32;34832;-82
2023/06/01 02:31:30;;;;;;;7.05;3.78;;;;;;;19.05;46.37;99273.94;4375724;32;33349;-83
2023/06/01 02:33:59;;;;;;;7.05;3.72;;;;;;;18.87;47.53;99273.44;4373235;32;33622;-82
2023/06/01 02:36:28;;;;;;;8.30;3.55;;;;;;;18.78;47.51;99270.97;4374320;32;33789;-82
2023/06/01 02:38:56;;;;;;;7.47;3.72;;;;;;;18.77;46.87;99273.62;4374472;32;34441;-82
2023/06/01 02:41:25;;;;;;;9.20;3.83;;;;;;;18.87;46.64;99262.06;4375345;32;33335;-83
2023/06/01 02:43:54;;;;;;;6.90;3.00;;;;;;;18.83;46.36;99263.03;4359270;32;33547;-83
2023/06/01 02:46:21;;;;;;;9.10;3.53;;;;;;;18.90;46.06;99265.50;4374370;32;34273;-82
2023/06/01 02:48:50;;;;;;;7.65;3.62;;;;;;;18.87;46.21;99264.69;4371628;32;33965;-83
2023/06/01 02:51:18;;;;;;;7.68;3.45;;;;;;;18.86;46.19;99263.78;4373677;32;34353;-82
2023/06/01 02:53:47;;;;;;;7.25;3.28;;;;;;;18.86;46.18;99263.78;4371500;32;33803;-83
2023/06/01 02:56:15;;;;;;;9.45;3.62;;;;;;;18.87;46.22;99267.31;4374476;32;34976;-83
2023/06/01 02:58:43;;;;;;;8.02;3.65;;;;;;;18.92;46.06;99273.34;4373456;32;34475;-84
2023/06/01 03:01:11;;;;;;;6.85;3.20;;;;;;;18.81;46.14;99259.53;4372088;32;34094;-82
2023/06/01 03:03:42;;;;;;;11.57;3.97;;;;;;;18.69;46.74;99258.84;4374075;32;33832;-83
2023/06/01 03:06:09;;;;;;;9.65;3.60;;;;;;;18.68;47.56;99270.25;4361994;32;33956;-83
2023/06/01 03:08:38;;;;;;;9.05;3.37;;;;;;;18.66;47.11;99266.78;4371493;32;34198;-83
2023/06/01 03:11:08;;;;;;;7.65;3.53;;;;;;;18.62;47.48;99272.13;4374780;32;33513;-82
2023/06/01 03:13:37;;;;;;;6.32;3.15;;;;;;;18.64;47.46;99270.34;4373411;32;34451;-83
2023/06/01 03:16:04;;;;;;;7.12;3.12;;;;;;;18.63;47.07;99265.97;4372661;32;33697;-84
2023/06/01 03:18:32;;;;;;;11.18;3.10;;;;;;;18.69;47.12;99268.50;4373709;32;34005;-83
2023/06/01 03:21:04;;;;;;;7.57;3.85;;;;;;;18.71;47.10;99271.97;4373814;32;33396;-82
2023/06/01 03:23:31;;;;;;;7.43;3.47;;;;;;;18.81;46.29;99270.91;4359417;32;34877;-84
2023/06/01 03:25:59;;;;;;;8.68;4.25;;;;;;;18.84;46.36;99262.97;4375682;32;35627;-83
2023/06/01 03:28:27;;;;;;;7.20;3.22;;;;;;;18.82;47.23;99267.38;4372079;32;33660;-84
2023/06/01 03:30:56;;;;;;;6.72;3.47;;;;;;;18.75;47.32;99267.53;4373010;32;33475;-83
2023/06/01 03:33:23;;;;;;;8.32;3.40;;;;;;;18.93;46.99;99268.03;4372887;32;33667;-85
2023/06/01 03:35:51;;;;;;;11.43;3.62;;;;;;;19.00;46.99;99268.78;4374343;32;33772;-82
2023/06/01 03:38:19;;;;;;;6.80;2.90;;;;;;;18.98;47.28;99267.09;4372506;32;33916;-83
2023/06/01 03:40:46;;;;;;;10.68;3.67;;;;;;;19.03;47.38;99267.88;4372620;32;32912;-81
2023/06/01 03:43:14;;;;;;;6.80;3.47;;;;;;;18.93;48.12;99269.81;4370842;32;34911;-82
2023/06/01 03:45:42;;;;;;;9.75;3.12;;;;;;;19.14;49.05;99271.16;4370928;32;34783;-83
2023/06/01 03:48:10;;;;;;;8.00;3.35;;;;;;;19.26;47.98;99278.78;4374460;32;33871;-83
2023/06/01 03:50:37;;;;;;;8.07;3.80;;;;;;;19.54;47.32;99268.53;4373618;32;33597;-83
2023/06/01 03:53:05;;;;;;;8.63;3.20;;;;;;;19.54;47.71;99265.03;4371732;32;34178;-82
2023/06/01 03:55:34;;;;;;;8.05;3.42;;;;;;;19.75;47.38;99258.47;4360718;32;35434;-82
2023/06/01 03:58:04;;;;;;;7.93;4.03;;;;;;;19.95;46.66;99263.25;4374513;32;34631;-83
2023/06/01 04:00:32;;;;;;;10.18;3.62;;;;;;;19.98;47.16;99252.66;4373079;32;34127;-82
2023/06/01 04:03:06;;;;;;;8.27;3.08;;;;;;;20.09;47.91;99262.03;4374295;32;34815;-82
2023/06/01 04:05:36;;;;;;;8.27;3.50;;;;;;;20.27;47.42;99260.72;4353592;32;35427;-83
2023/06/01 04:08:04;;;;;;;6.60;3.15;;;;;;;20.64;46.34;99255.38;4371664;32;34559;-82
2023/06/01 04:10:31;;;;;;;7.55;3.47;;;;;;;20.68;46.27;99252.66;4373613;32;33697;-82
2023/06/01 04:12:59;;;;;;;9.52;3.72;;;;;;;20.56;47.56;99248.59;4373438;32;34426;-83
2023/06/01 04:15:28;;;;;;;10.43;3.33;;;;;;;20.70;47.30;99258.78;4374806;32;34016;-83
2023/06/01 04:17:55;;;;;;;5.90;2.80;;;;;;;20.99;46.56;99263.25;4373341;32;34056;-82
2023/06/01 04:20:23;;;;;;;7.55;2.90;;;;;;;21.31;45.82;99252.63;4374838;32;34412;-82
2023/06/01 04:22:51;;;;;;;8.20;2.97;;;;;;;21.57;45.32;99259.78;4375294;32;34525;-83
2023/06/01 04:25:20;;;;;;;6.72;2.75;;;;;;;21.90;44.84;99261.44;4375213;32;33944;-82
2023/06/01 04:27:51;;;;;;;6.87;3.40;;;;;;;22.21;44.44;99256.06;4374135;32;35170;-81
2023/06/01 04:30:20;;;;;;;6.40;3.10;;;;;;;22.35;43.61;99251.19;4371743;32;33549;-83
2023/06/01 04:32:47;;;;;;;7.35;2.95;;;;;;;22.65;43.16;99251.00;4375214;32;34566;-84
2023/06/01 04:35:16;;;;;;;7.60;2.50;;;;;;;22.97;43.01;99263.13;4361237;32;33582;-82
2023/06/01 04:37:44;;;;;;;7.93;2.85;;;;;;;23.14;42.82;99265.12;4373945;32;33915;-84
2023/06/01 04:40:13;;;;;;;9.30;3.45;;;;;;;23.34;42.21;99269.72;4374971;32;33374;-83
2023/06/01 04:42:55;;;;;;;7.22;2.97;;;;;;;23.67;41.56;99263.13;4374318;32;33787;-81
2023/06/01 04:45:25;;;;;;;8.18;2.70;;;;;;;24.11;41.10;99260.50;4350501;32;34234;-83
2023/06/01 04:47:57;;;;;;;5.07;2.20;;;;;;;24.21;41.57;99261.00;4373694;32;34486;-81
2023/06/01 04:50:28;;;;;;;5.72;2.55;;;;;;;24.35;41.54;99260.41;4362363;32;33471;-83
2023/06/01 04:52:58;;;;;;;5.68;2.53;;;;;;;24.56;40.94;99262.19;4359167;32;34385;-82
2023/06/01 04:55:31;;;;;;;7.40;2.70;;;;;;;24.55;41.10;99270.19;4345446;32;33006;-82
2023/06/01 04:57:59;;;;;;;6.65;2.90;;;;;;;24.69;38.94;99262.50;4372873;32;34601;-82
2023/06/01 05:00:26;;;;;;;7.82;2.97;;;;;;;25.15;40.20;99265.78;4376054;32;33492;-83
2023/06/01 05:02:55;;;;;;;6.28;2.85;;;;;;;25.32;39.68;99268.56;4376562;32;34419;-83
2023/06/01 05:05:23;;;;;;;7.00;3.12;;;;;;;24.93;37.52;99265.88;4376560;32;34315;-85
2023/06/01 05:07:50;;;;;;;7.95;2.92;;;;;;;25.08;36.89;99261.66;4375680;32;33808;-83
2023/06/01 05:10:18;;;;;;;7.00;2.80;;;;;;;25.30;37.83;99261.59;4376912;32;33076;-83
2023/06/01 05:12:46;;;;;;;10.95;3.03;;;;;;;25.44;39.57;99262.66;4376822;32;33894;-83
2023/06/01 05:15:16;;;;;;;7.07;2.62;;;;;;;24.96;37.51;99268.38;4383440;32;33961;-82
2023/06/01 05:17:44;;;;;;;8.23;3.08;;;;;;;25.44;37.42;99273.28;4362403;32;33835;-83
2023/06/01 05:20:12;;;;;;;6.95;2.55;;;;;;;25.55;35.98;99266.63;4376749;32;33522;-85
2023/06/01 05:22:40;;;;;;;6.78;2.67;;;;;;;25.62;37.35;99268.91;4362921;32;33845;-83
2023/06/01 05:25:08;;;;;;;9.02;3.47;;;;;;;25.85;35.19;99267.00;4377169;32;33763;-85
2023/06/01 05:27:36;;;;;;;11.20;3.00;;;;;;;25.68;36.37;99268.63;4377309;32;35086;-83
2023/06/01 05:30:05;;;;;;;8.15;3.00;;;;;;;25.58;32.18;99264.69;4376865;32;34652;-83
2023/06/01 05:32:33;;;;;;;6.85;2.72;;;;;;;25.28;34.94;99260.81;4376574;32;34282;-84
2023/06/01 05:35:03;;;;;;;9.02;3.17;;;;;;;25.28;35.06;99266.97;4376838;32;34136;-84
2023/06/01 05:37:31;;;;;;;7.45;2.60;;;;;;;25.44;34.51;99267.13;4376842;32;33968;-84
2023/06/01 05:39:59;;;;;;;7.62;2.53;;;;;;;25.40;35.42;99265.53;4376717;32;34464;-85
2023/06/01 05:42:26;;;;;;;8.32;3.20;;;;;;;24.87;33.98;99260.84;4376535;32;34099;-83
2023/06/01 05:44:54;;;;;;;10.70;3.03;;;;;;;25.03;33.39;99261.87;4376718;32;33856;-83
2023/06/01 05:47:21;;;;;;;6.25;2.60;;;;;;;25.10;33.59;99268.66;4376680;32;34264;-84
2023/06/01 05:49:49;;;;;;;8.82;2.90;;;;;;;24.79;33.72;99266.47;4376462;32;33544;-83
2023/06/01 05:52:16;;;;;;;11.85;2.70;;;;;;;24.63;32.91;99266.28;4374677;32;33921;-83
2023/06/01 05:54:44;;;;;;;9.57;3.10;;;;;;;24.51;32.29;99266.81;4377146;32;33926;-85
2023/06/01 05:57:12;;;;;;;6.22;2.00;;;;;;;24.83;33.55;99261.91;4376568;32;33950;-84
2023/06/01 05:59:42;;;;;;;6.93;2.87;;;;;;;25.15;31.87;99265.78;4376778;32;34259;-84
2023/06/01 06:02:10;;;;;;;6.03;2.87;;;;;;;25.06;33.19;99263.53;4376766;32;33196;-84
2023/06/01 06:04:38;;;;;;;7.32;2.30;;;;;;;24.73;31.84;99264.09;4376442;32;33663;-83
2023/06/01 06:07:07;;;;;;;6.62;2.87;;;;;;;25.02;33.24;99265.47;4376306;32;34025;-83
2023/06/01 06:09:34;;;;;;;9.30;2.65;;;;;;;25.02;33.58;99256.66;4375850;32;33328;-84
2023/06/01 06:12:02;;;;;;;7.85;2.67;;;;;;;24.69;32.61;99259.84;4376311;32;33871;-84
2023/06/01 06:14:30;;;;;;;8.73;2.90;;;;;;;24.90;33.15;99261.56;4376620;32;34975;-83
2023/06/01 06:17:00;;;;;;;7.45;2.50;;;;;;;24.34;31.05;99271.94;4376394;32;33166;-84
2023/06/01 06:19:27;;;;;;;8.07;2.65;;;;;;;25.15;32.45;99265.78;4363048;32;33263;-84
2023/06/01 06:21:55;;;;;;;7.50;2.33;;;;;;;25.23;32.24;99259.22;4376481;32;33587;-84
2023/06/01 06:24:22;;;;;;;8.80;3.00;;;;;;;25.76;31.62;99260.31;4376384;32;35141;-84
2023/06/01 06:26:50;;;;;;;7.40;2.55;;;;;;;25.56;30.82;99277.16;4376436;32;33814;-84
2023/06/01 06:29:18;;;;;;;9.65;3.00;;;;;;;25.86;30.35;99269.56;4376460;32;33102;-84
2023/06/01 06:31:45;;;;;;;10.35;3.65;;;;;;;25.84;30.64;99267.94;4362951;32;33256;-84
2023/06/01 06:34:15;;;;;;;8.40;3.42;;;;;;;24.97;31.58;99262.16;4375894;32;34652;-83
2023/06/01 06:36:42;;;;;;;9.70;3.78;;;;;;;25.37;32.08;99273.62;4376305;32;33638;-84
2023/06/01 06:39:10;;;;;;;11.45;3.60;;;;;;;25.48;32.61;99271.34;4376360;32;33524;-84
2023/06/01 06:41:40;;;;;;;9.07;3.42;;;;;;;25.10;32.29;99268.66;4376356;32;34634;-83
2023/06/01 06:44:08;;;;;;;8.95;2.95;;;;;;;24.75;32.43;99265.75;4376309;32;34984;-84
2023/06/01 06:46:35;;;;;;;9.15;2.80;;;;;;;24.95;32.14;99266.66;4376561;32;33603;-84
2023/06/01 06:49:03;;;;;;;8.13;3.15;;;;;;;25.38;32.49;99270.03;4376395;32;34641;-84
2023/06/01 06:51:31;;;;;;;9.68;3.65;;;;;;;25.60;32.59;99265.47;4376131;32;33445;-83
2023/06/01 06:54:02;;;;;;;15.13;3.17;;;;;;;25.89;31.66;99263.25;4362743;32;34115;-85
2023/06/01 06:56:30;;;;;;;9.60;3.22;;;;;;;25.58;32.59;99269.13;4376566;32;34799;-82
2023/06/01 06:58:59;;;;;;;8.98;3.10;;;;;;;25.59;31.85;99261.09;4376391;32;33123;-84
2023/06/01 07:01:37;;;;;;;9.23;3.50;;;;;;;25.65;31.43;99266.12;4363863;32;34543;-84
2023/06/01 07:04:08;;;;;;;9.48;3.28;;;;;;;25.65;32.75;99266.12;4376216;32;33850;-84
2023/06/01 07:06:37;;;;;;;12.85;3.90;;;;;;;25.78;32.40;99254.91;4362664;32;33422;-83
2023/06/01 07:09:05;;;;;;;13.13;3.22;;;;;;;26.27;33.64;99263.16;4375802;32;33062;-85
2023/06/01 07:11:33;;;;;;;9.48;3.30;;;;;;;26.46;30.99;99265.78;4375920;32;34454;-83
2023/06/01 07:14:01;;;;;;;7.53;2.95;;;;;;;26.26;31.59;99267.63;4375898;32;35255;-84
2023/06/01 07:16:29;;;;;;;9.52;3.15;;;;;;;26.93;32.21;99268.63;4375593;32;34657;-82
2023/06/01 07:18:57;;;;;;;13.02;3.53;;;;;;;27.15;31.49;99263.94;4375521;32;33099;-85
2023/06/01 07:21:24;;;;;;;6.43;2.70;;;;;;;26.27;31.62;99273.78;4375297;32;33956;-84
2023/06/01 07:23:52;;;;;;;7.43;3.33;;;;;;;26.12;30.71;99260.31;4375615;32;33992;-84
2023/06/01 07:26:20;;;;;;;8.65;3.40;;;;;;;25.93;31.56;99267.47;4375702;32;34489;-84
2023/06/01 07:28:52;;;;;;;9.32;3.17;;;;;;;25.52;30.94;99264.97;4361597;32;33596;-84
2023/06/01 07:31:21;;;;;;;7.25;2.90;;;;;;;25.19;32.08;99273.56;4375580;32;33936;-84
2023/06/01 07:33:49;;;;;;;9.43;2.83;;;;;;;25.50;32.39;99266.84;4375664;32;34166;-83
2023/06/01 07:36:18;;;;;;;9.30;2.95;;;;;;;25.33;33.03;99266.75;4375879;32;33892;-84
2023/06/01 07:38:46;;;;;;;11.82;3.53;;;;;;;25.58;33.22;99264.69;4375548;32;32957;-83
2023/06/01 07:41:13;;;;;;;8.98;2.65;;;;;;;26.00;31.94;99255.63;4375744;32;34043;-83
2023/06/01 07:43:41;;;;;;;10.43;2.87;;;;;;;26.11;31.05;99261.28;4375860;32;34055;-84
2023/06/01 07:46:08;;;;;;;7.00;2.58;;;;;;;26.48;31.13;99258.56;4375584;32;33533;-85
2023/06/01 07:48:38;;;;;;;8.63;2.37;;;;;;;26.04;29.65;99249.22;4375380;32;34400;-84
2023/06/01 07:51:07;;;;;;;7.90;2.78;;;;;;;26.24;31.09;99258.00;4375578;32;33999;-85
2023/06/01 07:53:35;;;;;;;9.68;3.08;;;;;;;26.84;29.70;99250.50;4375297;32;33451;-84
2023/06/01 07:56:03;;;;;;;8.65;2.85;;;;;;;26.90;30.24;99252.84;4362055;32;34470;-85
2023/06/01 07:58:31;;;;;;;9.40;3.03;;;;;;;26.43;30.18;99258.78;4375403;32;32997;-83
2023/06/01 08:00:58;;;;;;;9.55;2.83;;;;;;;26.67;30.16;99257.56;4361613;32;34427;-83
2023/06/01 08:03:27;;;;;;;11.18;2.72;;;;;;;27.07;29.45;99252.81;4361750;32;34042;-83
2023/06/01 08:05:58;;;;;;;6.90;2.67;;;;;;;26.91;30.01;99251.91;4375162;32;33946;-84
2023/06/01 08:08:27;;;;;;;7.40;2.72;;;;;;;27.03;30.20;99253.91;4374960;32;33336;-83
2023/06/01 08:10:54;;;;;;;7.07;2.90;;;;;;;27.15;28.97;99247.97;4375079;32;34008;-85
2023/06/01 08:13:22;;;;;;;8.77;2.67;;;;;;;27.20;30.10;99253.06;4375222;32;33951;-83
2023/06/01 08:15:52;;;;;;;8.65;3.35;;;;;;;27.57;30.52;99254.53;4375658;32;34684;-85
2023/06/01 08:18:21;;;;;;;9.50;3.05;;;;;;;27.34;30.54;99254.94;4375877;32;33186;-83
2023/06/01 08:20:49;;;;;;;11.12;3.15;;;;;;;27.31;30.09;99247.13;4375475;32;33788;-84
2023/06/01 08:23:16;;;;;;;5.35;2.55;;;;;;;27.08;29.81;99243.88;4375690;32;34201;-84
2023/06/01 08:25:45;;;;;;;8.52;2.70;;;;;;;26.97;29.95;99248.91;4375446;32;34490;-83
2023/06/01 08:28:12;;;;;;;10.20;2.75;;;;;;;27.23;29.65;99244.03;4374977;32;32764;-83
2023/06/01 08:30:40;;;;;;;7.70;3.20;;;;;;;27.23;31.77;99252.00;4376601;32;34574;-83
2023/06/01 08:33:07;;;;;;;10.02;2.87;;;;;;;27.09;29.89;99245.63;4376587;32;33933;-82
2023/06/01 08:35:36;;;;;;;6.90;2.40;;;;;;;27.16;29.51;99247.03;4377875;32;33934;-83
2023/06/01 08:38:05;;;;;;;7.93;2.62;;;;;;;27.70;27.71;99243.22;4377310;32;34226;-83
2023/06/01 08:40:32;;;;;;;7.70;2.87;;;;;;;26.78;29.21;99242.84;4377073;32;33517;-83
2023/06/01 08:43:19;;;;;;;8.60;3.72;;;;;;;26.59;29.85;99248.25;4363563;32;34182;-84
2023/06/01 08:45:48;;;;;;;7.68;2.47;;;;;;;27.29;29.97;99244.56;4377078;32;34747;-83
2023/06/01 08:48:17;;;;;;;11.95;3.22;;;;;;;27.65;28.39;99246.13;4377339;32;34423;-83
2023/06/01 08:50:49;;;;;;;7.20;2.90;;;;;;;27.45;29.48;99238.37;4376439;32;34315;-81
2023/06/01 08:53:21;;;;;;;7.97;2.60;;;;;;;27.37;28.87;99241.47;4382745;32;33775;-83
2023/06/01 08:55:53;;;;;;;7.70;2.58;;;;;;;27.49;29.11;99238.13;4369324;32;34023;-84
2023/06/01 08:58:21;;;;;;;8.15;3.00;;;;;;;27.64;28.02;99239.06;4376896;32;33156;-82
2023/06/01 09:00:53;;;;;;;14.20;2.60;;;;;;;27.92;26.93;99233.09;4376639;32;33476;-83
2023/06/01 09:03:21;;;;;;;9.98;3.28;;;;;;;28.14;26.32;99232.69;4376379;32;33862;-82
2023/06/01 09:05:49;;;;;;;6.07;2.37;;;;;;;28.09;27.67;99227.62;4375388;32;34791;-83
2023/06/01 09:08:16;;;;;;;8.07;3.00;;;;;;;28.48;27.89;99226.25;4364893;32;35020;-84
2023/06/01 09:10:44;;;;;;;7.60;2.80;;;;;;;28.25;27.12;99218.72;4372622;32;33656;-82
2023/06/01 09:13:11;;;;;;;7.32;3.28;;;;;;;27.97;28.41;99225.69;4363098;32;34986;-83
2023/06/01 09:15:52;;;;;;;11.57;3.10;;;;;;;28.36;28.50;99218.94;4375855;32;33894;-83
2023/06/01 09:18:20;;;;;;;7.93;2.90;;;;;;;27.95;28.50;99218.72;4376420;32;33070;-84
2023/06/01 09:20:48;;;;;;;8.52;3.30;;;;;;;27.93;29.16;99221.47;4363113;32;33486;-82
2023/06/01 09:23:26;;;;;;;8.20;2.80;;;;;;;27.70;28.60;99216.59;4363250;32;34278;-85
2023/06/01 09:26:05;;;;;;;10.52;3.53;;;;;;;28.04;30.18;99216.37;4376638;32;34948;-83
2023/06/01 09:28:55;;;;;;;9.93;2.90;;;;;;;28.32;28.06;99214.75;4363200;32;32953;-83
2023/06/01 09:31:40;;;;;;;8.02;2.80;;;;;;;28.05;28.50;99209.25;4363087;32;33621;-85
2023/06/01 09:34:08;;;;;;;5.93;2.87;;;;;;;28.36;29.26;99211.81;4376526;32;34161;-83
2023/06/01 09:36:37;;;;;;;6.85;2.53;;;;;;;28.50;28.37;99207.50;4362680;32;34023;-84
2023/06/01 09:39:07;;;;;;;5.65;2.67;;;;;;;28.43;29.45;99209.69;4376163;32;33171;-83
2023/06/01 09:41:54;;;;;;;7.85;3.28;;;;;;;28.70;28.20;99208.97;4376194;32;33799;-83
2023/06/01 09:44:29;;;;;;;11.43;2.87;;;;;;;29.14;28.38;99208.91;4376655;32;34104;-85
2023/06/01 09:47:04;;;;;;;8.45;3.00;;;;;;;29.27;27.37;99209.84;4376269;32;34472;-83
2023/06/01 09:49:36;;;;;;;9.48;3.47;;;;;;;29.07;26.87;99211.09;4376248;32;34235;-84
2023/06/01 09:52:03;;;;;;;8.15;3.08;;;;;;;29.27;27.06;99211.66;4376799;32;33381;-84
2023/06/01 09:54:40;;;;;;;9.57;3.47;;;;;;;29.38;25.79;99214.50;4376805;32;33947;-85
2023/06/01 09:57:10;;;;;;;8.40;3.08;;;;;;;28.42;26.59;99215.97;4376400;32;33737;-85
2023/06/01 09:59:40;;;;;;;7.10;3.50;;;;;;;28.22;26.96;99208.25;4376433;32;33787;-84
2023/06/01 10:02:12;;;;;;;7.03;3.03;;;;;;;28.37;26.77;99207.38;4376047;32;33548;-85
2023/06/01 10:04:41;;;;;;;9.13;3.15;;;;;;;28.75;27.79;99212.19;4362652;32;34126;-84
2023/06/01 10:07:11;;;;;;;8.82;2.75;;;;;;;28.94;27.30;99201.25;4376533;32;34067;-84
2023/06/01 10:09:41;;;;;;;11.60;2.97;;;;;;;28.96;30.12;99212.69;4363104;32;33455;-85
2023/06/01 10:12:09;;;;;;;10.85;3.40;;;;;;;28.68;28.60;99205.50;4362272;32;33813;-84
2023/06/01 10:14:38;;;;;;;8.48;3.30;;;;;;;29.02;27.89;99205.19;4376346;32;35164;-85
2023/06/01 10:17:07;;;;;;;8.95;3.22;;;;;;;28.96;27.59;99204.69;4375722;32;33861;-84
2023/06/01 10:19:40;;;;;;;6.57;3.37;;;;;;;29.57;26.50;99199.03;4376014;32;33151;-84
2023/06/01 10:22:10;;;;;;;7.65;3.50;;;;;;;29.22;28.59;99187.06;4375995;32;34004;-83
2023/06/01 10:24:41;;;;;;;7.05;3.45;;;;;;;29.54;27.29;99187.66;4375896;32;34171;-84
2023/06/01 10:27:22;;;;;;;8.32;3.25;;;;;;;29.80;28.81;99185.97;4361601;32;33597;-83
2023/06/01 10:29:52;;;;;;;6.55;3.12;;;;;;;29.90;27.81;99179.06;4375538;32;33601;-84
2023/06/01 10:32:45;;;;;;;9.30;3.65;;;;;;;29.93;27.54;99176.19;4375833;32;34001;-82
2023/06/01 10:35:32;;;;;;;8.27;3.60;;;;;;;29.84;27.96;99182.12;4374000;32;33853;-83
2023/06/01 10:38:16;;;;;;;7.78;3.60;;;;;;;29.52;28.50;99179.75;4369871;32;34046;-84
2023/06/01 10:40:45;;;;;;;8.65;3.55;;;;;;;29.60;28.65;99178.44;4375808;32;34469;-83
2023/06/01 10:43:36;;;;;;;9.05;3.60;;;;;;;29.62;27.04;99174.69;4376324;32;33791;-83
2023/06/01 10:46:33;;;;;;;7.50;3.15;;;;;;;29.85;27.22;99166.97;4375955;32;33708;-83
2023/06/01 10:49:00;;;;;;;8.23;3.72;;;;;;;29.84;26.93;99171.44;4375287;32;33689;-83
2023/06/01 10:51:28;;;;;;;11.07;3.78;;;;;;;29.01;27.43;99167.91;4365802;32;33326;-82
2023/06/01 10:54:23;;;;;;;9.65;3.67;;;;;;;29.33;27.10;99161.38;4375851;32;34509;-84
2023/06/01 10:57:25;;;;;;;9.10;3.37;;;;;;;29.67;26.64;99153.88;4375802;32;34149;-84
2023/06/01 11:00:22;;;;;;;5.97;3.00;;;;;;;29.56;29.60;99162.56;4375467;32;33627;-84
2023/06/01 11:03:03;;;;;;;10.90;3.62;;;;;;;29.60;26.03;99154.37;4375777;32;33150;-84
2023/06/01 11:05:35;;;;;;;8.98;3.60;;;;;;;29.86;27.20;99158.84;4375236;32;33928;-84
2023/06/01 11:08:04;;;;;;;7.82;3.25;;;;;;;29.40;29.14;99163.63;4375547;32;34948;-83
2023/06/01 11:10:50;;;;;;;10.35;3.87;;;;;;;29.48;28.75;99156.88;4361909;32;34245;-83
2023/06/01 11:13:19;;;;;;;9.52;3.60;;;;;;;29.72;27.72;99151.75;4375391;32;33482;-84
2023/06/01 11:16:21;;;;;;;7.90;3.47;;;;;;;29.79;27.22;99144.19;4362145;32;33883;-83
2023/06/01 11:18:57;;;;;;;9.52;3.45;;;;;;;29.55;27.60;99142.16;4375481;32;34926;-84
2023/06/01 11:21:46;;;;;;;8.88;3.55;;;;;;;29.46;28.48;99142.75;4362901;32;33572;-83
2023/06/01 11:24:15;;;;;;;9.63;3.87;;;;;;;29.91;27.73;99135.34;4376344;32;33601;-84
2023/06/01 11:26:45;;;;;;;8.88;3.17;;;;;;;29.37;27.25;99131.81;4376011;32;34151;-82
2023/06/01 11:29:20;;;;;;;6.18;3.25;;;;;;;28.81;27.80;99127.28;4371027;32;34117;-84
2023/06/01 11:31:56;;;;;;;8.38;3.62;;;;;;;29.30;28.16;99126.00;4376554;32;34700;-84
2023/06/01 11:34:34;;;;;;;8.73;3.20;;;;;;;29.66;28.84;99127.25;4376790;32;33521;-83
2023/06/01 11:37:02;;;;;;;7.32;3.00;;;;;;;29.71;28.33;99123.31;4376348;32;34608;-83
2023/06/01 11:39:30;;;;;;;7.40;3.70;;;;;;;29.41;28.08;99119.97;4375909;32;33822;-83
2023/06/01 11:42:12;;;;;;;10.07;2.95;;;;;;;29.53;29.25;99113.81;4350577;32;33543;-85
2023/06/01 11:44:42;;;;;;;10.68;3.58;;;;;;;29.97;26.85;99105.53;4362569;32;33277;-84
2023/06/01 11:47:10;;;;;;;8.98;3.58;;;;;;;29.40;27.31;99104.88;4362442;32;33774;-84